Latest Weather Observations for Lajamanu

IDD60801

Issued at 7:31 pm CST Wednesday 24 August 2016 (issued every 30 minutes, with the page automatically refreshed every 10 minutes)

About weather observations | Map of weather stations | Latest weather observations for NT | Other Formats
Station Details ID: 014829 Name: LAJAMANU AIRPORT Lat: -18.33 Lon: 130.64 Height: 315.6 m
Data from the previous 72 hours. | See also: Recent months at Lajamanu
Date/Time
CST
Temp
°C
App
Temp
°C
Dew
Point
°C
Rel
Hum
%
Delta-T
°C
Wind Press
QNH
hPa
Press
MSL
hPa
Rain since
9am
mm
Dir  Spd
km/h
Gust
km/h
Spd
kts
Gust
kts
24/07:30pm 20.7 17.1 -1.8 22 9.8 SE 7 11 4 6 1013.5 1012.4 0.0
24/07:00pm 22.5 19.1 -2.2 19 10.9 SSE 6 9 3 5 1012.9 1011.8 0.0
24/06:30pm 25.0 21.0 -2.5 16 12.3 SE 9 13 5 7 1012.5 1011.5 0.0
24/06:00pm 26.5 22.1 -2.2 15 13.0 SE 11 17 6 9 1012.2 1011.1 0.0
24/05:30pm 27.5 23.9 -2.3 14 13.6 SW 7 15 4 8 1012.0 1010.9 0.0
24/05:00pm 27.6 24.9 -2.3 14 13.7 NNE 2 9 1 5 1011.8 1010.7 0.0
24/04:30pm 27.9 23.6 -2.0 14 13.8 SSE 11 20 6 11 1011.6 1010.5 0.0
24/04:00pm 27.3 23.3 -2.5 14 13.5 SE 9 15 5 8 1011.6 1010.5 0.0
24/03:30pm 26.8 22.1 -2.0 15 13.2 ESE 13 22 7 12 1011.7 1010.6 0.0
24/03:00pm 26.4 21.3 -2.3 15 13.0 SSE 15 20 8 11 1011.9 1010.8 0.0
24/02:30pm 27.0 22.7 -1.8 15 13.2 ESE 11 19 6 10 1012.2 1011.1 0.0
24/02:00pm 26.7 21.2 -2.1 15 13.1 SE 17 22 9 12 1012.9 1011.8 0.0
24/01:30pm 26.5 20.6 -0.5 17 12.7 SE 20 33 11 18 1013.4 1012.3 0.0
24/01:00pm 25.6 19.7 -0.5 18 12.1 SSE 20 30 11 16 1013.7 1012.6 0.0
24/12:30pm 25.0 18.8 -0.2 19 11.7 SE 22 33 12 18 1014.3 1013.2 0.0
24/12:00pm 24.5 18.1 0.8 21 11.2 SE 24 32 13 17 1014.6 1013.5 0.0
24/11:30am 24.3 18.2 2.5 24 10.6 ESE 24 33 13 18 1015.2 1014.1 0.0
24/11:00am 22.9 16.7 2.4 26 9.9 SE 24 37 13 20 1015.5 1014.5 0.0
24/10:30am 22.5 16.5 3.6 29 9.3 ESE 24 32 13 17 1015.6 1014.6 0.0
24/10:00am 21.2 14.5 3.9 32 8.5 ESE 28 39 15 21 1015.6 1014.6 0.0
24/09:30am 20.2 14.3 3.9 34 7.9 ESE 24 35 13 19 1015.6 1014.6 0.0
24/09:00am 18.3 12.9 2.6 35 7.3 SE 20 28 11 15 1015.4 1014.4 0.0
24/08:30am 16.7 11.7 -0.9 30 7.5 SE 15 20 8 11 1015.3 1014.3 0.0
24/08:00am 15.0 10.1 -3.3 28 7.3 SSE 13 17 7 9 1014.9 1013.8 0.0
24/07:30am 13.7 9.1 -4.0 29 6.9 SSE 11 20 6 11 1014.6 1013.5 0.0
24/07:00am 12.8 8.6 -4.3 30 6.5 S 9 15 5 8 1014.1 1013.0 0.0
24/06:30am 11.5 7.6 -4.6 32 6.0 S 7 11 4 6 1013.6 1012.5 0.0
24/06:00am 11.2 7.4 -5.3 31 6.1 S 6 7 3 4 1012.9 1011.8 0.0
24/05:30am 13.2 9.3 -4.9 28 6.9 S 7 9 4 5 1012.2 1011.1 0.0
24/05:00am 13.0 9.2 -6.0 26 7.0 S 6 7 3 4 1011.9 1010.8 0.0
24/04:30am 15.1 10.8 -4.8 25 7.7 S 9 13 5 7 1011.5 1010.4 0.0
24/04:00am 15.2 11.2 -5.8 23 8.0 S 7 9 4 5 1011.4 1010.3 0.0
24/03:30am 16.6 11.9 -5.2 22 8.5 S 11 13 6 7 1011.1 1010.0 0.0
24/03:00am 17.8 12.7 -5.4 20 9.2 S 13 17 7 9 1010.9 1009.8 0.0
24/02:30am 18.7 13.2 -5.4 19 9.6 S 15 20 8 11 1010.7 1009.6 0.0
24/02:00am 19.0 13.1 -5.8 18 9.8 S 17 20 9 11 1010.5 1009.4 0.0
24/01:30am 18.9 13.8 -5.2 19 9.7 S 13 17 7 9 1010.6 1009.5 0.0
24/01:00am 19.4 14.0 -4.8 19 9.8 S 15 20 8 11 1010.7 1009.6 0.0
24/12:30am 20.2 14.8 -4.8 18 10.2 S 15 20 8 11 1010.8 1009.7 0.0
24/12:00am 20.5 15.2 -3.9 19 10.2 SSW 15 20 8 11 1010.6 1009.5 0.0
 
Date/Time
CST
Temp
°C
App
Temp
°C
Dew
Point
°C
Rel
Hum
%
Delta-T
°C
Wind Press
QNH
hPa
Press
MSL
hPa
Rain since
9am
mm
Dir  Spd
km/h
Gust
km/h
Spd
kts
Gust
kts
23/11:30pm 19.5 15.5 -2.2 23 9.3 SW 9 15 5 8 1010.4 1009.3 0.0
23/11:00pm 19.3 15.3 -2.3 23 9.2 WSW 9 11 5 6 1010.2 1009.1 0.0
23/10:30pm 20.7 16.3 -2.4 21 10.0 SW 11 13 6 7 1010.1 1009.0 0.0
23/10:00pm 21.3 17.3 -2.5 20 10.3 SW 9 11 5 6 1010.0 1008.9 0.0
23/09:30pm 22.7 18.3 -2.1 19 11.0 SW 11 13 6 7 1009.9 1008.8 0.0
23/09:00pm 22.6 18.2 -2.2 19 10.9 WSW 11 15 6 8 1009.6 1008.4 0.0
23/08:30pm 22.8 18.8 -2.0 19 11.0 WSW 9 11 5 6 1009.1 1008.0 0.0
23/08:00pm 24.3 20.0 -1.5 18 11.7 WSW 11 15 6 8 1008.7 1007.6 0.0
23/07:30pm 25.4 21.5 -1.4 17 12.3 WSW 9 13 5 7 1008.3 1007.2 0.0
23/07:00pm 27.2 22.0 -2.6 14 13.5 WSW 15 24 8 13 1007.9 1006.8 0.0
23/06:30pm 28.4 23.0 -1.6 14 14.0 W 17 26 9 14 1007.3 1006.2 0.0
23/06:00pm 30.1 25.1 -1.3 13 14.9 W 15 26 8 14 1006.9 1005.7 0.0
23/05:30pm 30.7 25.4 -0.8 13 15.2 W 17 28 9 15 1006.6 1005.4 0.0
23/05:00pm 31.3 25.6 -0.4 13 15.4 WNW 19 30 10 16 1006.5 1005.3 0.0
23/04:30pm 31.5 26.3 -0.2 13 15.5 W 17 24 9 13 1006.3 1005.1 0.0
23/04:00pm 31.3 25.5 -0.4 13 15.4 WNW 20 43 11 23 1006.4 1005.2 0.0
23/03:30pm 31.1 25.0 0.5 14 15.1 W 22 37 12 20 1006.4 1005.2 0.0
23/03:00pm 31.8 25.8 1.0 14 15.4 WNW 22 35 12 19 1006.6 1005.4 0.0
23/02:30pm 30.9 24.2 1.3 15 14.8 WNW 26 39 14 21 1006.9 1005.7 0.0
23/02:00pm 30.1 23.6 0.6 15 14.5 NW 24 41 13 22 1007.5 1006.4 0.0
23/01:30pm 31.3 26.0 1.6 15 15.0 W 19 32 10 17 1007.9 1006.8 0.0
23/01:00pm 29.8 24.3 0.4 15 14.3 W 19 28 10 15 1008.3 1007.2 0.0
23/12:30pm 29.0 23.4 -0.2 15 14.0 W 19 35 10 19 1008.7 1007.6 0.0
23/12:00pm 29.0 23.8 -0.2 15 14.0 W 17 28 9 15 1009.5 1008.3 0.0
23/11:30am 28.8 22.6 -0.4 15 14.0 WSW 22 33 12 18 1009.9 1008.8 0.0
23/11:00am 27.4 21.3 -2.4 14 13.6 WSW 20 39 11 21 1010.2 1009.1 0.0
23/10:30am 27.3 20.3 -3.5 13 13.8 WSW 24 37 13 20 1010.4 1009.3 0.0
23/10:00am 26.7 20.4 -1.2 16 12.9 WSW 22 32 12 17 1010.2 1009.1 0.0
23/09:30am 25.3 20.0 -0.7 18 12.0 WSW 17 26 9 14 1009.8 1008.7 0.0
23/09:00am 23.7 18.1 0.1 21 11.0 WSW 19 26 10 14 1009.5 1008.3 0.0
23/08:30am 21.6 17.5 2.3 28 9.2 WSW 13 17 7 9 1009.3 1008.2 0.0
23/08:00am 17.7 14.7 1.7 34 7.3 WSW 7 11 4 6 1008.9 1007.8 0.0
23/07:30am 15.1 12.1 2.3 42 5.8 SW 7 9 4 5 1008.9 1007.8 0.0
23/07:00am 15.8 12.8 1.9 39 6.3 WSW 7 9 4 5 1008.4 1007.3 0.0
23/06:30am 16.6 13.5 1.1 35 6.9 W 7 11 4 6 1008.0 1006.9 0.0
23/06:00am 17.6 14.6 2.0 35 7.2 NW 7 9 4 5 1007.6 1006.5 0.0
23/05:30am 17.8 15.1 3.7 39 6.7 W 7 9 4 5 1007.5 1006.4 0.0
23/05:00am 17.8 15.2 4.4 41 6.5 W 7 9 4 5 1007.3 1006.2 0.0
23/04:30am 19.8 17.9 6.5 42 6.8 W 6 9 3 5 1007.3 1006.2 0.0
23/04:00am 19.7 19.3 12.9 65 3.9 NW 7 9 4 5 1006.9 1005.7 0.0
23/03:30am 20.4 19.6 12.9 62 4.3 NNW 9 11 5 6 1007.0 1005.9 0.0
23/03:00am 20.7 19.8 11.3 55 5.3 NW 7 9 4 5 1007.1 1006.0 0.0
23/02:30am 21.5 20.0 8.4 43 7.0 NW 6 9 3 5 1007.4 1006.3 0.0
23/02:00am 22.6 20.5 6.8 36 8.2 NNW 7 9 4 5 1007.8 1006.7 0.0
23/01:30am 24.2 22.0 5.5 30 9.6 WNW 6 7 3 4 1008.1 1007.0 0.0
23/01:00am 25.0 20.1 5.2 28 10.2 NNW 20 33 11 18 1008.2 1007.1 0.0
23/12:30am 21.8 19.3 4.8 33 8.5 NW 7 9 4 5 1007.7 1006.6 0.0
23/12:00am 21.9 19.6 4.9 33 8.5 NW 6 7 3 4 1007.8 1006.7 0.0
 
Date/Time
CST
Temp
°C
App
Temp
°C
Dew
Point
°C
Rel
Hum
%
Delta-T
°C
Wind Press
QNH
hPa
Press
MSL
hPa
Rain since
9am
mm
Dir  Spd
km/h
Gust
km/h
Spd
kts
Gust
kts
22/11:30pm 22.1 19.8 5.5 34 8.4 NNW 7 7 4 4 1008.0 1006.9 0.0
22/11:00pm 22.8 20.3 4.8 31 9.1 NNW 7 9 4 5 1008.0 1006.9 0.0
22/10:30pm 22.8 20.5 4.8 31 9.1 NW 6 7 3 4 1008.2 1007.1 0.0
22/10:00pm 22.1 19.7 4.2 31 8.9 NW 6 7 3 4 1008.2 1007.1 0.0
22/09:30pm 23.2 20.8 4.2 29 9.5 WNW 6 7 3 4 1008.1 1007.0 0.0
22/09:00pm 23.2 20.6 4.2 29 9.5 W 7 9 4 5 1008.0 1006.9 0.0
22/08:30pm 24.0 21.5 3.9 27 10.1 W 6 6 3 3 1007.6 1006.5 0.0
22/08:00pm 24.1 21.5 3.4 26 10.2 W 6 7 3 4 1007.3 1006.2 0.0
22/07:30pm 26.3 23.6 3.5 23 11.5 W 7 7 4 4 1006.7 1005.5 0.0
22/07:00pm 28.2 25.6 3.1 20 12.7 W 6 9 3 5 1006.3 1005.1 0.0
22/06:30pm 29.7 26.1 2.9 18 13.7 WNW 11 17 6 9 1005.9 1004.8 0.0
22/06:00pm 30.1 26.0 2.4 17 14.0 WNW 13 19 7 10 1005.8 1004.7 0.0
22/05:30pm 30.8 26.5 1.2 15 14.8 NW 13 22 7 12 1005.6 1004.5 0.0
22/05:00pm 31.0 26.0 1.4 15 14.8 WNW 17 24 9 13 1005.5 1004.4 0.0
22/04:30pm 32.4 28.2 1.5 14 15.7 WNW 13 22 7 12 1005.7 1004.6 0.0
22/04:00pm 30.7 26.7 0.2 14 14.9 SW 11 20 6 11 1005.8 1004.7 0.0
22/03:30pm 30.2 25.9 0.7 15 14.5 NW 13 22 7 12 1006.4 1005.2 0.0
22/03:00pm 30.7 26.0 1.1 15 14.7 WNW 15 24 8 13 1006.7 1005.5 0.0
22/02:30pm 30.7 26.8 1.1 15 14.7 W 11 17 6 9 1007.1 1006.0 0.0
22/02:00pm 31.2 28.1 1.5 15 14.9 SW 7 13 4 7 1007.3 1006.2 0.0
22/01:30pm 30.7 27.2 1.1 15 14.7 NW 9 15 5 8 1007.8 1006.7 0.0
22/01:00pm 30.4 26.8 0.9 15 14.6 W 9 13 5 7 1008.2 1007.1 0.0
22/12:30pm 29.9 26.7 -0.5 14 14.6 NW 6 11 3 6 1008.7 1007.6 0.0
22/12:00pm 29.3 26.3 1.7 17 13.7 WSW 7 17 4 9 1009.2 1008.1 0.0
22/11:30am 28.5 26.0 4.7 22 12.4 S 7 13 4 7 1009.8 1008.7 0.0
22/11:00am 27.4 25.0 5.1 24 11.6 SW 7 13 4 7 1010.1 1009.0 0.0
22/10:30am 26.0 23.5 5.0 26 10.8 S 7 11 4 6 1010.3 1009.2 0.0
22/10:00am 25.1 21.8 4.3 26 10.5 SSE 11 13 6 7 1010.4 1009.3 0.0
22/09:30am 23.2 19.6 2.7 26 10.0 S 11 13 6 7 1010.2 1009.1 0.0
22/09:00am 22.1 18.5 2.8 28 9.3 S 11 15 6 8 1009.9 1008.8 1.6
22/08:30am 19.7 16.9 5.0 38 7.3 SSW 9 15 5 8 1009.9 1008.8 1.6
22/08:00am 17.2 15.4 8.1 55 4.7 WNW 7 9 4 5 1010.0 1008.9 1.6
22/07:30am 16.6 15.1 8.6 59 4.2 WNW 6 7 3 4 1009.6 1008.4 1.6
22/07:00am 15.9 14.0 9.1 64 3.6 WSW 9 11 5 6 1009.2 1008.1 1.6
22/06:30am 15.8 14.5 10.1 69 3.0 WNW 7 9 4 5 1009.1 1008.0 1.6
22/06:00am 16.0 14.6 9.4 65 3.5 NW 7 9 4 5 1008.9 1007.8 1.6
22/05:30am 17.2 15.7 10.6 65 3.6 N 9 11 5 6 1008.6 1007.5 1.6
22/05:00am 16.8 15.3 10.4 66 3.5 NNW 9 13 5 7 1008.5 1007.4 1.6
22/04:30am 18.1 17.4 10.2 60 4.3 ENE 4 13 2 7 1008.2 1007.1 1.6
22/04:00am 19.1 18.2 10.6 58 4.7 W 6 7 3 4 1008.2 1007.1 1.6
22/03:30am 19.8 18.9 10.5 55 5.1 WNW 6 7 3 4 1008.4 1007.3 1.6
22/03:00am 20.6 19.6 11.0 54 5.4 W 7 7 4 4 1008.7 1007.6 1.6
22/02:30am 21.4 20.4 10.9 51 5.9 WSW 7 9 4 5 1008.9 1007.8 1.6
22/02:00am 21.8 20.6 11.5 52 5.8 WSW 9 11 5 6 1009.1 1008.0 1.6
22/01:30am 22.5 22.0 12.7 54 5.7 WSW 7 9 4 5 1009.2 1008.1 1.6
22/01:00am 22.4 22.7 15.0 63 4.5 WNW 7 9 4 5 1009.6 1008.4 1.6
22/12:30am 21.5 22.0 14.9 66 4.0 W 6 9 3 5 1009.7 1008.5 1.6
22/12:00am 22.0 22.3 14.6 63 4.4 W 6 7 3 4 1009.9 1008.8 1.6
 
Date/Time
CST
Temp
°C
App
Temp
°C
Dew
Point
°C
Rel
Hum
%
Delta-T
°C
Wind Press
QNH
hPa
Press
MSL
hPa
Rain since
9am
mm
Dir  Spd
km/h
Gust
km/h
Spd
kts
Gust
kts
21/11:30pm 22.6 22.9 15.0 62 4.6 W 7 9 4 5 1010.1 1009.0 1.6
21/11:00pm 22.8 23.0 14.1 58 5.2 WNW 6 7 3 4 1010.2 1009.1 1.6
21/10:30pm 24.3 24.3 14.1 53 6.1 NNW 7 9 4 5 1010.1 1009.0 1.6
21/10:00pm 26.0 25.6 14.1 47 7.2 NNW 9 13 5 7 1010.0 1008.9 1.6
21/09:30pm 26.4 26.4 14.2 47 7.4 NNW 7 11 4 6 1010.0 1008.9 1.6
21/09:00pm 26.1 26.1 14.2 48 7.2 NNW 7 9 4 5 1009.8 1008.7 1.6
21/08:30pm 25.2 26.0 12.4 45 7.5 CALM 0 0 0 0 1009.7 1008.5 1.6
21/08:00pm 23.7 24.2 11.7 47 6.9 CALM 0 0 0 0 1009.1 1008.0 1.6

Other Formats:

Comma delimited format used in spreadsheet applications
http://www.bom.gov.au/fwo/IDD60801/IDD60801.94231.axf

JavaScript Object Notation format (JSON) in row-major order
http://www.bom.gov.au/fwo/IDD60801/IDD60801.94231.json